Time;durP1;ratioP1;P1;durP2;ratioP2;P2;SDS_P1;SDS_P2;PMS_P1;PMS_P2;Temp;Humidity;BMP_temperature;BMP_pressure;BME280_temperature;BME280_humidity;BME280_pressure;Samples;Min_cycle;Max_cycle;Signal;HPM_P1;HPM_P2
2022/11/04 00:01:17;;;;;;;;;;;6.40;99.90;;;;;;5094311;28;19908;-77
2022/11/04 00:03:43;;;;;;;;;;;6.40;99.90;;;;;;5093604;28;19908;-78
2022/11/04 00:06:08;;;;;;;;;;;6.40;99.90;;;;;;5094057;28;19915;-77
2022/11/04 00:08:34;;;;;;;;;;;6.40;99.90;;;;;;5093421;28;19912;-77
2022/11/04 00:13:44;;;;;;;;;;;6.30;99.90;;;;;;5093571;28;19916;-77
2022/11/04 00:18:54;;;;;;;;;;;6.20;99.90;;;;;;5093417;28;19915;-77
2022/11/04 00:29:33;;;;;;;;;;;6.00;99.90;;;;;;5093366;28;19923;-77
2022/11/04 00:34:42;;;;;;;;;;;5.80;99.90;;;;;;5092567;28;19947;-77
2022/11/04 00:37:08;;;;;;;;;;;5.80;99.90;;;;;;5093459;28;19936;-77
2022/11/04 00:39:33;;;;;;;;;;;5.80;99.90;;;;;;5093372;28;19915;-77
2022/11/04 00:41:59;;;;;;;;;;;5.80;99.90;;;;;;5092661;28;20682;-77
2022/11/04 00:44:25;;;;;;;;;;;5.70;99.90;;;;;;5093091;28;19912;-78
2022/11/04 00:46:50;;;;;;;;;;;5.70;99.90;;;;;;5092565;28;19916;-76
2022/11/04 00:49:16;;;;;;;;;;;5.70;99.90;;;;;;5092835;28;20334;-77
2022/11/04 00:51:41;;;;;;;;;;;5.60;99.90;;;;;;5092644;28;19951;-76
2022/11/04 00:54:07;;;;;;;;;;;5.70;99.90;;;;;;5092828;28;19909;-76
2022/11/04 00:56:36;;;;;;;;;;;5.60;99.90;;;;;;5092884;28;19960;-77
2022/11/04 00:59:01;;;;;;;;;;;5.60;99.90;;;;;;5092136;28;20506;-77
2022/11/04 01:01:27;;;;;;;;;;;5.50;99.90;;;;;;5091609;28;19916;-77
2022/11/04 01:03:53;;;;;;;;;;;5.60;99.90;;;;;;5092107;28;20033;-77
2022/11/04 01:06:19;;;;;;;;;;;5.50;99.90;;;;;;5092608;28;19915;-77
2022/11/04 01:08:45;;;;;;;;;;;5.50;99.90;;;;;;5091925;28;19927;-77
2022/11/04 01:11:11;;;;;;;;;;;5.50;99.90;;;;;;5092484;28;19908;-77
2022/11/04 01:13:37;;;;;;;;;;;5.40;99.90;;;;;;5092951;28;19931;-77
2022/11/04 01:16:04;;;;;;;;;;;5.40;99.90;;;;;;5092127;28;20095;-77
2022/11/04 01:18:29;;;;;;;;;;;5.40;99.90;;;;;;5092550;28;19915;-77
2022/11/04 01:20:59;;;;;;;;;;;5.40;99.90;;;;;;5091862;28;19912;-77
2022/11/04 01:23:24;;;;;;;;;;;5.50;99.90;;;;;;5092291;28;19908;-77
2022/11/04 01:25:50;;;;;;;;;;;5.50;99.90;;;;;;5092109;28;19962;-77
2022/11/04 01:28:15;;;;;;;;;;;5.40;99.90;;;;;;5092646;28;19909;-77
2022/11/04 01:30:41;;;;;;;;;;;5.40;99.90;;;;;;5092348;28;19920;-77
2022/11/04 01:33:07;;;;;;;;;;;5.40;99.90;;;;;;5090760;28;20007;-77
2022/11/04 01:35:32;;;;;;;;;;;5.40;99.90;;;;;;5091802;28;19915;-78
2022/11/04 01:37:58;;;;;;;;;;;5.40;99.90;;;;;;5091238;28;20367;-77
2022/11/04 01:40:24;;;;;;;;;;;5.40;99.90;;;;;;5092399;28;19908;-77
2022/11/04 01:42:49;;;;;;;;;;;5.40;99.90;;;;;;5091645;28;19916;-77
2022/11/04 01:45:17;;;;;;;;;;;5.40;99.90;;;;;;5092581;28;20292;-76
2022/11/04 01:47:47;;;;;;;;;;;5.40;99.90;;;;;;5092253;28;19915;-75
2022/11/04 01:50:14;;;;;;;;;;;5.30;99.90;;;;;;5092486;28;19923;-75
2022/11/04 01:52:43;;;;;;;;;;;5.40;99.90;;;;;;5092251;28;19920;-75
2022/11/04 01:55:15;;;;;;;;;;;5.40;99.90;;;;;;5092596;28;19958;-75
2022/11/04 01:57:43;;;;;;;;;;;5.30;99.90;;;;;;5093000;28;19988;-75
2022/11/04 02:00:09;;;;;;;;;;;5.30;99.90;;;;;;5093147;28;19973;-75
2022/11/04 02:02:39;;;;;;;;;;;5.30;99.90;;;;;;5093196;28;19961;-76
2022/11/04 02:05:05;;;;;;;;;;;5.30;99.90;;;;;;5092311;28;19920;-75
2022/11/04 02:07:30;;;;;;;;;;;5.30;99.90;;;;;;5091368;28;19908;-75
2022/11/04 02:09:56;;;;;;;;;;;5.30;99.90;;;;;;5091999;28;19923;-75
2022/11/04 02:15:06;;;;;;;;;;;5.20;99.90;;;;;;5091951;28;19961;-76
2022/11/04 02:17:47;;;;;;;;;;;5.20;99.90;;;;;;5092831;28;19909;-76
2022/11/04 02:20:19;;;;;;;;;;;5.20;99.90;;;;;;5092655;28;19908;-76
2022/11/04 02:22:44;;;;;;;;;;;5.20;99.90;;;;;;5094938;28;19914;-76
2022/11/04 02:25:25;;;;;;;;;;;5.20;99.90;;;;;;5096041;28;20016;-76
2022/11/04 02:28:09;;;;;;;;;;;5.20;99.90;;;;;;5095893;28;19908;-75
2022/11/04 02:30:38;;;;;;;;;;;5.20;99.90;;;;;;5096008;28;19920;-75
2022/11/04 02:33:16;;;;;;;;;;;5.20;99.90;;;;;;5095684;28;19908;-75
2022/11/04 02:36:00;;;;;;;;;;;5.20;99.90;;;;;;5096786;28;19973;-75
2022/11/04 02:38:28;;;;;;;;;;;5.20;99.90;;;;;;5096472;28;19912;-75
2022/11/04 02:41:11;;;;;;;;;;;5.20;99.90;;;;;;5095264;28;19908;-76
2022/11/04 02:43:36;;;;;;;;;;;5.20;99.90;;;;;;5096170;28;20462;-76
2022/11/04 02:46:06;;;;;;;;;;;5.20;99.90;;;;;;5095607;28;19908;-76
2022/11/04 02:48:52;;;;;;;;;;;5.20;99.90;;;;;;5094657;28;19912;-76
2022/11/04 02:51:20;;;;;;;;;;;5.20;99.90;;;;;;5096205;28;19915;-76
2022/11/04 02:53:51;;;;;;;;;;;5.20;99.90;;;;;;5095764;28;20278;-76
2022/11/04 02:56:18;;;;;;;;;;;5.10;99.90;;;;;;5096240;28;19919;-76
2022/11/04 02:58:52;;;;;;;;;;;5.10;99.90;;;;;;5095546;28;19912;-75
2022/11/04 03:01:20;;;;;;;;;;;5.10;99.90;;;;;;5096111;28;19995;-76
2022/11/04 03:03:47;;;;;;;;;;;5.10;99.90;;;;;;5095863;28;19969;-75
2022/11/04 03:06:14;;;;;;;;;;;5.00;99.90;;;;;;5095552;28;19914;-75
2022/11/04 03:08:47;;;;;;;;;;;5.00;99.90;;;;;;5095671;28;19969;-76
2022/11/04 03:11:14;;;;;;;;;;;5.10;99.90;;;;;;5095453;28;19908;-76
2022/11/04 03:13:52;;;;;;;;;;;5.00;99.90;;;;;;5095197;28;19944;-75
2022/11/04 03:16:25;;;;;;;;;;;5.00;99.90;;;;;;5095739;28;19953;-76
2022/11/04 03:18:50;;;;;;;;;;;5.10;99.90;;;;;;5094845;28;20422;-75
2022/11/04 03:21:18;;;;;;;;;;;5.10;99.90;;;;;;5095518;28;19908;-75
2022/11/04 03:23:43;;;;;;;;;;;5.10;99.90;;;;;;5095888;28;19908;-75
2022/11/04 03:26:30;;;;;;;;;;;5.10;99.90;;;;;;5093118;28;19915;-76
2022/11/04 03:29:11;;;;;;;;;;;5.10;99.90;;;;;;5093339;28;19920;-75
2022/11/04 03:31:42;;;;;;;;;;;5.10;99.90;;;;;;5094176;28;19966;-75
2022/11/04 03:34:08;;;;;;;;;;;5.10;99.90;;;;;;5094340;28;19909;-75
2022/11/04 03:36:34;;;;;;;;;;;5.10;99.90;;;;;;5094961;28;19931;-75
2022/11/04 03:38:59;;;;;;;;;;;5.10;99.90;;;;;;5094622;28;19908;-75
2022/11/04 03:41:47;;;;;;;;;;;5.10;99.90;;;;;;5094868;28;20006;-75
2022/11/04 03:44:12;;;;;;;;;;;5.10;99.90;;;;;;5093766;28;19915;-75
2022/11/04 03:46:38;;;;;;;;;;;5.00;99.90;;;;;;5094864;28;19908;-75
2022/11/04 03:49:05;;;;;;;;;;;5.00;99.90;;;;;;5094155;28;19922;-75
2022/11/04 03:51:31;;;;;;;;;;;5.00;99.90;;;;;;5094727;28;19912;-75
2022/11/04 03:53:57;;;;;;;;;;;5.00;99.90;;;;;;5094012;28;19928;-76
2022/11/04 03:56:41;;;;;;;;;;;5.00;99.90;;;;;;5093723;28;19919;-75
2022/11/04 03:59:21;;;;;;;;;;;5.00;99.90;;;;;;5094156;28;20349;-75
2022/11/04 04:01:50;;;;;;;;;;;5.00;99.90;;;;;;5094717;28;19908;-75
2022/11/04 04:04:21;;;;;;;;;;;5.00;99.90;;;;;;5094342;28;20019;-75
2022/11/04 04:06:49;;;;;;;;;;;5.00;99.90;;;;;;5094608;28;19908;-75
2022/11/04 04:09:21;;;;;;;;;;;5.00;99.90;;;;;;5094594;28;19920;-74
2022/11/04 04:11:56;;;;;;;;;;;5.00;99.90;;;;;;5094410;28;19908;-74
2022/11/04 04:14:38;;;;;;;;;;;5.00;99.90;;;;;;5094495;28;19912;-75
2022/11/04 04:17:24;;;;;;;;;;;5.00;99.90;;;;;;5093787;28;19915;-75
2022/11/04 04:20:15;;;;;;;;;;;5.00;99.90;;;;;;5081690;28;19912;-75
2022/11/04 04:22:53;;;;;;;;;;;5.00;99.90;;;;;;5091998;28;19961;-75
2022/11/04 04:28:03;;;;;;;;;;;5.00;99.90;;;;;;5093174;28;20367;-75
2022/11/04 04:30:29;;;;;;;;;;;5.00;99.90;;;;;;5094084;28;20010;-75
2022/11/04 04:32:55;;;;;;;;;;;5.00;99.90;;;;;;5093590;28;20273;-75
2022/11/04 04:35:42;;;;;;;;;;;5.00;99.90;;;;;;5094033;28;19908;-75
2022/11/04 04:46:31;;;;;;;;;;;5.00;99.90;;;;;;5093792;28;19953;-75
2022/11/04 04:49:03;;;;;;;;;;;4.90;99.90;;;;;;5092699;28;20285;-76
2022/11/04 04:51:29;;;;;;;;;;;4.90;99.90;;;;;;5093678;28;19908;-75
2022/11/04 04:53:54;;;;;;;;;;;4.90;99.90;;;;;;5093141;28;19973;-76
2022/11/04 04:56:20;;;;;;;;;;;4.90;99.90;;;;;;5093150;28;19908;-74
2022/11/04 04:58:46;;;;;;;;;;;5.00;99.90;;;;;;5093603;28;20349;-75
2022/11/04 05:01:11;;;;;;;;;;;4.90;99.90;;;;;;5092724;28;19915;-75
2022/11/04 05:03:37;;;;;;;;;;;4.90;99.90;;;;;;5093490;28;19908;-75
2022/11/04 05:06:02;;;;;;;;;;;4.90;99.90;;;;;;5093296;28;19909;-76
2022/11/04 05:08:28;;;;;;;;;;;4.90;99.90;;;;;;5093806;28;19969;-75
2022/11/04 05:10:53;;;;;;;;;;;4.80;99.90;;;;;;5093489;28;19909;-75
2022/11/04 05:13:25;;;;;;;;;;;4.90;99.90;;;;;;5092700;28;20344;-75
2022/11/04 05:15:50;;;;;;;;;;;4.90;99.90;;;;;;5093638;28;19908;-75
2022/11/04 05:18:16;;;;;;;;;;;4.90;99.90;;;;;;5092305;28;19931;-75
2022/11/04 05:20:42;;;;;;;;;;;4.90;99.90;;;;;;5093166;28;19908;-76
2022/11/04 05:23:10;;;;;;;;;;;4.90;99.90;;;;;;5092580;28;19908;-76
2022/11/04 05:25:38;;;;;;;;;;;4.80;99.90;;;;;;5093305;28;20262;-76
2022/11/04 05:28:04;;;;;;;;;;;4.80;99.90;;;;;;5092469;28;19939;-76
2022/11/04 05:30:30;;;;;;;;;;;4.80;99.90;;;;;;5092887;28;19916;-76
2022/11/04 05:32:55;;;;;;;;;;;4.80;99.90;;;;;;5093267;28;19908;-76
2022/11/04 05:35:21;;;;;;;;;;;4.80;99.90;;;;;;5093108;28;19961;-76
2022/11/04 05:37:47;;;;;;;;;;;4.90;99.90;;;;;;5093449;28;20268;-76
2022/11/04 05:40:13;;;;;;;;;;;4.90;99.90;;;;;;5091066;28;19908;-75
2022/11/04 05:42:38;;;;;;;;;;;4.90;99.90;;;;;;5092840;28;20391;-76
2022/11/04 05:45:04;;;;;;;;;;;5.00;99.90;;;;;;5091397;28;19940;-75
2022/11/04 05:47:30;;;;;;;;;;;4.90;99.90;;;;;;5092616;28;19908;-75
2022/11/04 05:49:55;;;;;;;;;;;4.90;99.90;;;;;;5091841;28;19938;-76
2022/11/04 05:52:21;;;;;;;;;;;4.90;99.90;;;;;;5092211;28;19915;-74
2022/11/04 05:54:47;;;;;;;;;;;5.00;99.90;;;;;;5093129;28;20376;-75
2022/11/04 05:57:12;;;;;;;;;;;5.00;99.90;;;;;;5093002;28;19915;-75
2022/11/04 05:59:38;;;;;;;;;;;5.00;99.90;;;;;;5097166;28;19908;-76
2022/11/04 06:02:04;;;;;;;;;;;5.00;99.90;;;;;;5095388;28;19961;-76
2022/11/04 06:04:29;;;;;;;;;;;5.00;99.90;;;;;;5096636;28;20344;-75
2022/11/04 06:06:55;;;;;;;;;;;5.00;99.90;;;;;;5096772;28;20399;-75
2022/11/04 06:09:37;;;;;;;;;;;5.10;99.90;;;;;;5096293;28;20015;-75
2022/11/04 06:12:10;;;;;;;;;;;5.10;99.90;;;;;;5096337;28;19915;-75
2022/11/04 06:14:36;;;;;;;;;;;5.10;99.90;;;;;;5096861;28;19914;-75
2022/11/04 06:17:02;;;;;;;;;;;5.10;99.90;;;;;;5096066;28;19908;-75
2022/11/04 06:19:28;;;;;;;;;;;5.10;99.90;;;;;;5096812;28;19909;-76
2022/11/04 06:21:53;;;;;;;;;;;5.10;99.90;;;;;;5096672;28;19908;-75
2022/11/04 06:24:19;;;;;;;;;;;5.10;99.90;;;;;;5095953;28;19916;-75
2022/11/04 06:26:45;;;;;;;;;;;5.20;99.90;;;;;;5096426;28;20288;-75
2022/11/04 06:29:10;;;;;;;;;;;5.20;99.90;;;;;;5095990;28;20269;-76
2022/11/04 06:31:36;;;;;;;;;;;5.20;99.90;;;;;;5096331;28;19995;-75
2022/11/04 06:34:02;;;;;;;;;;;5.20;99.90;;;;;;5095709;28;19908;-75
2022/11/04 06:36:27;;;;;;;;;;;5.20;99.90;;;;;;5096103;28;19907;-75
2022/11/04 06:38:53;;;;;;;;;;;5.20;99.90;;;;;;5096433;28;19982;-76
2022/11/04 06:41:19;;;;;;;;;;;5.10;99.90;;;;;;5095893;28;19962;-75
2022/11/04 06:43:44;;;;;;;;;;;5.20;99.90;;;;;;5094852;28;19917;-74
2022/11/04 06:46:24;;;;;;;;;;;5.20;99.90;;;;;;5095716;28;19962;-75
2022/11/04 06:48:49;;;;;;;;;;;5.10;99.90;;;;;;5096076;28;19934;-75
2022/11/04 06:51:15;;;;;;;;;;;5.20;99.90;;;;;;5095105;28;19912;-75
2022/11/04 06:53:40;;;;;;;;;;;5.20;99.90;;;;;;5095745;28;19997;-75
2022/11/04 06:56:06;;;;;;;;;;;5.20;99.90;;;;;;5095441;28;19912;-75
2022/11/04 06:58:32;;;;;;;;;;;5.10;99.90;;;;;;5096039;28;19908;-75
2022/11/04 07:00:57;;;;;;;;;;;5.10;99.90;;;;;;5095440;28;19976;-75
2022/11/04 07:03:23;;;;;;;;;;;5.10;99.90;;;;;;5094987;28;20007;-76
2022/11/04 07:05:48;;;;;;;;;;;5.00;99.90;;;;;;5095815;28;20415;-75
2022/11/04 07:08:14;;;;;;;;;;;5.00;99.90;;;;;;5094294;28;19915;-75
2022/11/04 07:10:40;;;;;;;;;;;5.00;99.90;;;;;;5095576;28;19970;-75
2022/11/04 07:13:05;;;;;;;;;;;5.00;99.90;;;;;;5095060;28;19916;-75
2022/11/04 07:15:32;;;;;;;;;;;5.00;99.90;;;;;;5095656;28;19961;-75
2022/11/04 07:17:58;;;;;;;;;;;5.00;99.90;;;;;;5095490;28;20005;-75
2022/11/04 07:20:23;;;;;;;;;;;5.00;99.90;;;;;;5094633;28;20475;-75
2022/11/04 07:22:49;;;;;;;;;;;4.90;99.90;;;;;;5095726;28;19922;-75
2022/11/04 07:25:14;;;;;;;;;;;4.90;99.90;;;;;;5094743;28;20273;-76
2022/11/04 07:27:40;;;;;;;;;;;4.90;99.90;;;;;;5095463;28;19991;-75
2022/11/04 07:30:06;;;;;;;;;;;4.90;99.90;;;;;;5094627;28;19916;-76
2022/11/04 07:32:31;;;;;;;;;;;4.90;99.90;;;;;;5095638;28;19915;-76
2022/11/04 07:34:57;;;;;;;;;;;4.80;99.90;;;;;;5095192;28;19908;-76
2022/11/04 07:37:23;;;;;;;;;;;4.80;99.90;;;;;;5093114;28;19908;-76
2022/11/04 07:39:48;;;;;;;;;;;4.80;99.90;;;;;;5095086;28;19953;-76
2022/11/04 07:42:14;;;;;;;;;;;4.80;99.90;;;;;;5092977;28;20390;-76
2022/11/04 07:44:39;;;;;;;;;;;4.80;99.90;;;;;;5095009;28;19915;-76
2022/11/04 07:47:05;;;;;;;;;;;4.80;99.90;;;;;;5094528;28;19926;-76
2022/11/04 07:49:30;;;;;;;;;;;4.80;99.90;;;;;;5094547;28;19966;-76
2022/11/04 07:51:56;;;;;;;;;;;4.90;99.90;;;;;;5094611;28;19973;-76
2022/11/04 07:54:21;;;;;;;;;;;5.00;99.90;;;;;;5094079;28;19920;-77
2022/11/04 07:56:47;;;;;;;;;;;5.10;99.90;;;;;;5094270;28;20411;-77
2022/11/04 07:59:13;;;;;;;;;;;5.10;99.90;;;;;;5094218;28;19909;-76
2022/11/04 08:01:38;;;;;;;;;;;5.20;99.90;;;;;;5094609;28;20368;-76
2022/11/04 08:04:06;;;;;;;;;;;5.30;99.90;;;;;;5094351;28;19915;-76
2022/11/04 08:06:31;;;;;;;;;;;5.30;99.90;;;;;;5094570;28;19931;-76
2022/11/04 08:08:57;;;;;;;;;;;5.40;99.90;;;;;;5094318;28;20361;-76
2022/11/04 08:11:27;;;;;;;;;;;5.50;99.90;;;;;;5093856;28;19958;-75
2022/11/04 08:13:53;;;;;;;;;;;5.60;99.90;;;;;;5093519;28;20413;-75
2022/11/04 08:16:20;;;;;;;;;;;5.80;99.90;;;;;;5093656;28;19948;-75
2022/11/04 08:18:47;;;;;;;;;;;5.90;99.90;;;;;;5093452;28;19908;-75
2022/11/04 08:21:13;;;;;;;;;;;6.00;99.90;;;;;;5091854;28;19908;-75
2022/11/04 08:23:38;;;;;;;;;;;6.10;99.90;;;;;;5093705;28;19908;-75
2022/11/04 08:26:08;;;;;;;;;;;6.20;99.90;;;;;;5094148;28;19908;-75
2022/11/04 08:28:34;;;;;;;;;;;6.20;99.90;;;;;;5093406;28;19908;-75
2022/11/04 08:31:23;;;;;;;;;;;6.20;99.90;;;;;;5093941;28;19916;-74
2022/11/04 08:33:49;;;;;;;;;;;6.20;99.90;;;;;;5088700;28;19915;-75
2022/11/04 08:36:16;;;;;;;;;;;6.20;99.90;;;;;;5093900;28;19916;-75
2022/11/04 08:38:42;;;;;;;;;;;6.20;99.90;;;;;;5093985;28;19960;-75
2022/11/04 08:41:08;;;;;;;;;;;6.20;99.90;;;;;;5093420;28;20322;-75
2022/11/04 08:43:34;;;;;;;;;;;6.10;99.90;;;;;;5093774;28;19908;-76
2022/11/04 08:46:00;;;;;;;;;;;6.10;99.90;;;;;;5093733;28;20369;-75
2022/11/04 08:48:25;;;;;;;;;;;6.20;99.90;;;;;;5092898;28;19919;-75
2022/11/04 08:50:52;;;;;;;;;;;6.20;99.90;;;;;;5093071;28;19924;-75
2022/11/04 08:53:18;;;;;;;;;;;6.30;99.90;;;;;;5092643;28;19920;-75
2022/11/04 08:55:44;;;;;;;;;;;6.40;99.90;;;;;;5093639;28;20268;-74
2022/11/04 08:58:09;;;;;;;;;;;6.50;99.90;;;;;;5093602;28;20002;-76
2022/11/04 09:00:35;;;;;;;;;;;6.60;99.90;;;;;;5093134;28;19918;-75
2022/11/04 09:03:01;;;;;;;;;;;6.60;99.90;;;;;;5093711;28;19961;-75
2022/11/04 09:05:27;;;;;;;;;;;6.60;99.90;;;;;;5092595;28;19908;-74
2022/11/04 09:07:54;;;;;;;;;;;6.70;99.90;;;;;;5093544;28;19909;-75
2022/11/04 09:10:19;;;;;;;;;;;6.70;99.90;;;;;;5091741;28;19923;-74
2022/11/04 09:12:45;;;;;;;;;;;6.80;99.90;;;;;;5093286;28;20281;-75
2022/11/04 09:15:11;;;;;;;;;;;6.90;99.90;;;;;;5093188;28;19912;-75
2022/11/04 09:17:36;;;;;;;;;;;6.90;99.90;;;;;;5092893;28;19968;-75
2022/11/04 09:20:03;;;;;;;;;;;6.90;99.90;;;;;;5093398;28;20018;-74
2022/11/04 09:22:29;;;;;;;;;;;7.00;99.90;;;;;;5092599;28;20376;-74
2022/11/04 09:24:54;;;;;;;;;;;7.00;99.90;;;;;;5091869;28;19908;-74
2022/11/04 09:27:20;;;;;;;;;;;7.10;99.90;;;;;;5092450;28;19915;-75
2022/11/04 09:29:45;;;;;;;;;;;7.10;99.90;;;;;;5093149;28;19963;-75
2022/11/04 09:32:11;;;;;;;;;;;7.10;99.90;;;;;;5092856;28;19915;-76
2022/11/04 09:34:36;;;;;;;;;;;7.10;99.90;;;;;;5092728;28;19995;-75
2022/11/04 09:37:02;;;;;;;;;;;7.20;99.90;;;;;;5092863;28;20369;-76
2022/11/04 09:39:28;;;;;;;;;;;7.20;99.90;;;;;;5092667;28;20329;-76
2022/11/04 09:41:53;;;;;;;;;;;7.30;99.90;;;;;;5093258;28;19977;-76
2022/11/04 09:44:19;;;;;;;;;;;7.30;99.90;;;;;;5092089;28;19916;-76
2022/11/04 09:46:47;;;;;;;;;;;7.30;99.90;;;;;;5092948;28;19914;-75
2022/11/04 09:49:12;;;;;;;;;;;7.40;99.90;;;;;;5092833;28;19928;-75
2022/11/04 09:51:40;;;;;;;;;;;7.40;99.90;;;;;;5092596;28;20010;-75
2022/11/04 09:54:17;;;;;;;;;;;7.50;99.90;;;;;;5092574;28;20280;-74
2022/11/04 09:56:44;;;;;;;;;;;7.50;99.90;;;;;;5092910;28;19908;-75
2022/11/04 09:59:12;;;;;;;;;;;7.50;99.90;;;;;;5091606;28;20357;-75
2022/11/04 10:01:43;;;;;;;;;;;7.60;99.90;;;;;;5092010;28;19912;-75
2022/11/04 10:04:32;;;;;;;;;;;7.70;99.90;;;;;;5092712;28;20353;-75
2022/11/04 10:06:58;;;;;;;;;;;7.70;99.90;;;;;;5086720;28;19955;-75
2022/11/04 10:09:42;;;;;;;;;;;7.80;99.90;;;;;;5091939;28;20400;-75
2022/11/04 10:12:20;;;;;;;;;;;7.90;99.90;;;;;;5091363;28;19944;-75
2022/11/04 10:15:04;;;;;;;;;;;8.00;99.90;;;;;;5092882;28;19908;-74
2022/11/04 10:17:32;;;;;;;;;;;8.10;99.90;;;;;;5091768;28;20383;-75
2022/11/04 10:20:02;;;;;;;;;;;8.00;99.90;;;;;;5092469;28;19995;-74
2022/11/04 10:22:28;;;;;;;;;;;8.10;99.90;;;;;;5091792;28;19909;-74
2022/11/04 10:25:03;;;;;;;;;;;8.10;99.90;;;;;;5092252;28;20373;-75
2022/11/04 10:27:39;;;;;;;;;;;8.10;99.90;;;;;;5092034;28;19908;-75
2022/11/04 10:30:11;;;;;;;;;;;8.10;99.90;;;;;;5092529;28;19924;-75
2022/11/04 10:32:51;;;;;;;;;;;8.10;99.90;;;;;;5092003;28;19905;-74
2022/11/04 10:35:20;;;;;;;;;;;8.20;99.90;;;;;;5092195;28;19908;-75
2022/11/04 10:37:47;;;;;;;;;;;8.20;99.90;;;;;;5092462;28;19916;-75
2022/11/04 10:40:35;;;;;;;;;;;8.20;99.90;;;;;;5092113;28;19919;-74
2022/11/04 10:43:01;;;;;;;;;;;8.30;99.90;;;;;;5092675;28;19915;-75
2022/11/04 10:45:33;;;;;;;;;;;8.40;99.90;;;;;;5095403;28;19999;-75
2022/11/04 10:48:07;;;;;;;;;;;8.50;99.90;;;;;;5096373;28;19912;-74
2022/11/04 10:50:38;;;;;;;;;;;8.50;99.90;;;;;;5095589;28;19916;-75
2022/11/04 10:53:10;;;;;;;;;;;8.50;99.90;;;;;;5095750;28;20356;-75
2022/11/04 10:55:39;;;;;;;;;;;8.60;99.90;;;;;;5095453;28;20379;-74
2022/11/04 10:58:11;;;;;;;;;;;8.60;99.90;;;;;;5096323;28;19912;-75
2022/11/04 11:00:38;;;;;;;;;;;8.70;99.90;;;;;;5095421;28;19908;-75
2022/11/04 11:03:23;;;;;;;;;;;8.80;99.90;;;;;;5095866;28;19908;-75
2022/11/04 11:05:52;;;;;;;;;;;8.80;99.90;;;;;;5095772;28;19908;-75
2022/11/04 11:08:29;;;;;;;;;;;8.90;99.90;;;;;;5095715;28;19908;-75
2022/11/04 11:10:55;;;;;;;;;;;8.90;99.90;;;;;;5095713;28;19916;-74
2022/11/04 11:13:26;;;;;;;;;;;8.90;99.90;;;;;;5095223;28;20407;-75
2022/11/04 11:16:06;;;;;;;;;;;9.00;99.90;;;;;;5095625;28;20372;-74
2022/11/04 11:18:31;;;;;;;;;;;9.00;99.90;;;;;;5094862;28;19912;-75
2022/11/04 11:21:08;;;;;;;;;;;9.10;99.90;;;;;;5095675;28;19915;-74
2022/11/04 11:23:34;;;;;;;;;;;9.10;99.90;;;;;;5094519;28;19995;-74
2022/11/04 11:26:00;;;;;;;;;;;9.20;99.90;;;;;;5095513;28;20418;-74
2022/11/04 11:28:26;;;;;;;;;;;9.20;99.90;;;;;;5093497;28;19919;-75
2022/11/04 11:31:00;;;;;;;;;;;9.30;99.90;;;;;;5095308;28;20353;-75
2022/11/04 11:33:30;;;;;;;;;;;9.30;99.90;;;;;;5094787;28;19916;-74
2022/11/04 11:36:01;;;;;;;;;;;9.40;99.90;;;;;;5094011;28;19918;-75
2022/11/04 11:38:27;;;;;;;;;;;9.40;99.90;;;;;;5093870;28;19969;-75
2022/11/04 11:41:04;;;;;;;;;;;9.40;99.90;;;;;;5095128;28;19999;-75
2022/11/04 11:43:31;;;;;;;;;;;9.50;99.90;;;;;;5094277;28;19951;-75
2022/11/04 11:45:58;;;;;;;;;;;9.50;99.90;;;;;;5094898;28;20002;-75
2022/11/04 11:48:28;;;;;;;;;;;9.60;99.90;;;;;;5094480;28;19912;-76
2022/11/04 11:50:57;;;;;;;;;;;9.60;99.90;;;;;;5093312;28;19959;-74
2022/11/04 11:53:24;;;;;;;;;;;9.60;99.90;;;;;;5094344;28;19921;-75
2022/11/04 11:55:52;;;;;;;;;;;9.60;99.90;;;;;;5094438;28;20380;-75
2022/11/04 11:58:25;;;;;;;;;;;9.70;99.90;;;;;;5094624;28;19908;-74
2022/11/04 12:01:01;;;;;;;;;;;9.70;99.90;;;;;;5095320;28;19940;-74
2022/11/04 12:03:32;;;;;;;;;;;9.70;99.90;;;;;;5075945;28;19966;-76
2022/11/04 12:06:06;;;;;;;;;;;9.80;99.90;;;;;;5094650;28;20010;-74
2022/11/04 12:08:49;;;;;;;;;;;9.90;99.90;;;;;;5094038;28;19908;-76
2022/11/04 12:11:20;;;;;;;;;;;9.90;99.90;;;;;;5094419;28;19923;-75
2022/11/04 12:13:55;;;;;;;;;;;9.90;99.90;;;;;;5092742;28;19915;-75
2022/11/04 12:16:42;;;;;;;;;;;10.00;99.90;;;;;;5094574;28;19962;-75
2022/11/04 12:19:11;;;;;;;;;;;10.00;99.90;;;;;;5095020;28;19908;-75
2022/11/04 12:21:44;;;;;;;;;;;10.10;99.90;;;;;;5093994;28;20003;-76
2022/11/04 12:24:13;;;;;;;;;;;10.10;99.90;;;;;;5093156;28;19912;-75
2022/11/04 12:26:42;;;;;;;;;;;10.20;99.90;;;;;;5093514;28;20003;-75
2022/11/04 12:29:08;;;;;;;;;;;10.20;99.90;;;;;;5094036;28;19922;-75
2022/11/04 12:31:59;;;;;;;;;;;10.20;99.90;;;;;;5093331;28;20272;-75
2022/11/04 12:34:24;;;;;;;;;;;10.20;99.90;;;;;;5093626;28;19954;-75
2022/11/04 12:36:56;;;;;;;;;;;10.20;99.90;;;;;;5093918;28;19912;-75
2022/11/04 12:39:38;;;;;;;;;;;10.20;99.90;;;;;;5093747;28;19908;-75
2022/11/04 12:42:09;;;;;;;;;;;10.20;99.90;;;;;;5093177;28;20014;-75
2022/11/04 12:44:41;;;;;;;;;;;10.20;99.90;;;;;;5093242;28;19998;-75
2022/11/04 12:47:24;;;;;;;;;;;10.30;99.90;;;;;;5093921;28;19958;-75
2022/11/04 12:49:53;;;;;;;;;;;10.30;99.90;;;;;;5092187;28;20039;-75
2022/11/04 12:52:39;;;;;;;;;;;10.30;99.90;;;;;;5092955;28;20463;-75
2022/11/04 12:55:05;;;;;;;;;;;10.30;99.90;;;;;;5093565;28;19920;-75
2022/11/04 12:57:33;;;;;;;;;;;10.40;99.90;;;;;;5092775;28;19919;-75
2022/11/04 13:00:05;;;;;;;;;;;10.40;99.90;;;;;;5094793;28;20006;-74
2022/11/04 13:02:34;;;;;;;;;;;10.40;99.90;;;;;;5093149;28;19908;-76
2022/11/04 13:05:02;;;;;;;;;;;10.50;99.90;;;;;;5092969;28;19909;-75
2022/11/04 13:07:40;;;;;;;;;;;10.50;99.90;;;;;;5093043;28;19961;-76
2022/11/04 13:10:13;;;;;;;;;;;10.60;99.90;;;;;;5093241;28;19916;-75
2022/11/04 13:12:41;;;;;;;;;;;10.60;99.90;;;;;;5092652;28;19970;-75
2022/11/04 13:15:21;;;;;;;;;;;10.60;99.90;;;;;;5093424;28;19916;-75
2022/11/04 13:17:48;;;;;;;;;;;10.70;99.90;;;;;;5092645;28;19912;-75
2022/11/04 13:20:38;;;;;;;;;;;10.60;99.90;;;;;;5091666;28;19961;-75
2022/11/04 13:23:06;;;;;;;;;;;10.60;99.90;;;;;;5093239;28;19908;-75
2022/11/04 13:25:43;;;;;;;;;;;10.60;99.90;;;;;;5092684;28;19977;-75
2022/11/04 13:28:12;;;;;;;;;;;10.60;99.90;;;;;;5093113;28;20296;-75
2022/11/04 13:30:43;;;;;;;;;;;10.60;99.90;;;;;;5092565;28;20326;-76
2022/11/04 13:33:18;;;;;;;;;;;10.70;99.90;;;;;;5091892;28;19912;-75
2022/11/04 13:35:55;;;;;;;;;;;10.70;99.90;;;;;;5092168;28;19915;-76
2022/11/04 13:38:39;;;;;;;;;;;10.70;99.90;;;;;;5092709;28;19958;-75
2022/11/04 13:41:23;;;;;;;;;;;10.70;99.90;;;;;;5092740;28;19908;-76
2022/11/04 13:43:53;;;;;;;;;;;10.70;99.90;;;;;;5092493;28;19990;-75
2022/11/04 13:46:19;;;;;;;;;;;10.70;99.90;;;;;;5093317;28;19920;-75
2022/11/04 13:48:58;;;;;;;;;;;10.70;99.90;;;;;;5092187;28;19909;-75
2022/11/04 13:51:32;;;;;;;;;;;10.70;99.90;;;;;;5092265;28;19916;-75
2022/11/04 13:53:58;;;;;;;;;;;10.70;99.90;;;;;;5091127;28;20329;-75
2022/11/04 13:56:26;;;;;;;;;;;10.70;99.90;;;;;;5092404;28;20030;-75
2022/11/04 13:58:53;;;;;;;;;;;10.80;99.90;;;;;;5091198;28;19908;-75
2022/11/04 14:01:22;;;;;;;;;;;10.80;99.90;;;;;;5092208;28;19949;-75
2022/11/04 14:04:06;;;;;;;;;;;10.90;99.90;;;;;;5092082;28;19915;-75
2022/11/04 14:06:55;;;;;;;;;;;11.00;99.90;;;;;;5092209;28;20354;-76
2022/11/04 14:09:35;;;;;;;;;;;11.00;99.90;;;;;;5086704;28;19912;-76
2022/11/04 14:12:10;;;;;;;;;;;10.90;99.90;;;;;;5092346;28;20265;-75
2022/11/04 14:14:43;;;;;;;;;;;10.90;99.90;;;;;;5090588;28;19974;-76
2022/11/04 14:17:27;;;;;;;;;;;10.80;99.90;;;;;;5092466;28;19961;-75
2022/11/04 14:19:57;;;;;;;;;;;10.80;99.90;;;;;;5096000;28;19912;-75
2022/11/04 14:22:30;;;;;;;;;;;10.80;99.90;;;;;;5096328;28;19931;-75
2022/11/04 14:24:57;;;;;;;;;;;10.80;99.90;;;;;;5095823;28;19912;-76
2022/11/04 14:27:29;;;;;;;;;;;10.70;99.90;;;;;;5096213;28;20274;-75
2022/11/04 14:29:54;;;;;;;;;;;10.70;99.90;;;;;;5095829;28;19965;-74
2022/11/04 14:32:24;;;;;;;;;;;10.70;99.90;;;;;;5096093;28;19912;-74
2022/11/04 14:34:56;;;;;;;;;;;10.70;99.90;;;;;;5095709;28;19915;-75
2022/11/04 14:37:25;;;;;;;;;;;10.70;99.90;;;;;;5096250;28;19939;-75
2022/11/04 14:39:55;;;;;;;;;;;10.70;99.90;;;;;;5095536;28;20002;-76
2022/11/04 14:42:39;;;;;;;;;;;10.60;99.90;;;;;;5095899;28;20001;-75
2022/11/04 14:45:07;;;;;;;;;;;10.60;99.90;;;;;;5096707;28;19995;-75
2022/11/04 14:47:33;;;;;;;;;;;10.70;99.90;;;;;;5095842;28;19908;-76
2022/11/04 14:49:58;;;;;;;;;;;10.60;99.90;;;;;;5095601;28;19920;-75
2022/11/04 14:52:33;;;;;;;;;;;10.60;99.90;;;;;;5096275;28;19912;-75
2022/11/04 14:55:01;;;;;;;;;;;10.60;99.90;;;;;;5095659;28;20376;-75
2022/11/04 14:57:28;;;;;;;;;;;10.70;99.90;;;;;;5093617;28;19912;-76
2022/11/04 14:59:54;;;;;;;;;;;10.70;99.90;;;;;;5094814;28;20365;-75
2022/11/04 15:02:22;;;;;;;;;;;10.70;99.90;;;;;;5095354;28;19908;-75
2022/11/04 15:04:54;;;;;;;;;;;10.70;99.90;;;;;;5094361;28;20323;-75
2022/11/04 15:07:24;;;;;;;;;;;10.70;99.90;;;;;;5095818;28;19914;-75
2022/11/04 15:09:50;;;;;;;;;;;10.70;99.90;;;;;;5093899;28;19912;-75
2022/11/04 15:15:02;;;;;;;;;;;10.70;99.90;;;;;;5095357;28;19915;-74